Time;durP1;ratioP1;P1;durP2;ratioP2;P2;SDS_P1;SDS_P2;PMS_P1;PMS_P2;Temp;Humidity;BMP_temperature;BMP_pressure;BME280_temperature;BME280_humidity;BME280_pressure;Samples;Min_cycle;Max_cycle;Signal;HPM_P1;HPM_P2
2023/05/11 00:01:07;;;;;;;15.83;14.33;;;;;;;14.63;100.00;101322.06;5297750;28;20070;-79
2023/05/11 00:03:39;;;;;;;15.87;14.23;;;;;;;14.34;100.00;101288.91;5299067;28;20077;-79
2023/05/11 00:06:10;;;;;;;17.80;15.13;;;;;;;14.33;100.00;101296.91;5298886;28;20036;-79
2023/05/11 00:08:41;;;;;;;19.43;16.03;;;;;;;14.55;100.00;101320.00;5298317;28;20422;-79
2023/05/11 00:11:13;;;;;;;17.13;14.80;;;;;;;14.43;100.00;101292.69;5298448;28;20036;-80
2023/05/11 00:13:44;;;;;;;16.00;14.40;;;;;;;14.38;100.00;101276.38;5298450;28;20565;-80
2023/05/11 00:16:15;;;;;;;15.83;14.23;;;;;;;14.51;100.00;101300.06;5296128;28;20055;-79
2023/05/11 00:18:48;;;;;;;17.43;15.70;;;;;;;14.38;100.00;101276.38;5280091;28;20556;-79
2023/05/11 00:21:21;;;;;;;17.67;14.93;;;;;;;14.43;100.00;101274.25;5277113;28;20107;-79
2023/05/11 00:23:52;;;;;;;20.57;16.10;;;;;;;14.53;100.00;101292.88;5276857;28;20396;-79
2023/05/11 00:26:25;;;;;;;17.80;15.87;;;;;;;14.40;100.00;101280.56;5275963;28;20025;-79
2023/05/11 00:28:56;;;;;;;17.83;15.60;;;;;;;14.28;100.00;101271.72;5276168;28;20028;-79
2023/05/11 00:31:28;;;;;;;16.67;14.97;;;;;;;14.33;100.00;101283.75;5276505;28;20024;-79
2023/05/11 00:33:59;;;;;;;17.47;15.77;;;;;;;14.40;100.00;101306.06;5275166;28;20488;-78
2023/05/11 00:36:32;;;;;;;20.07;17.73;;;;;;;14.32;100.00;101297.84;5287758;28;20692;-78
2023/05/11 00:39:03;;;;;;;19.77;17.47;;;;;;;14.27;100.00;101317.47;5297816;28;20020;-78
2023/05/11 00:41:35;;;;;;;24.13;17.90;;;;;;;14.33;100.00;101325.91;5296975;28;20032;-78
2023/05/11 00:44:06;;;;;;;21.83;18.30;;;;;;;14.15;100.00;101302.50;5297396;28;20485;-78
2023/05/11 00:46:38;;;;;;;23.40;17.97;;;;;;;14.15;100.00;101308.59;5296481;28;20031;-78
2023/05/11 00:49:09;;;;;;;20.60;17.97;;;;;;;14.09;100.00;101305.53;5297652;28;20395;-79
2023/05/11 00:51:42;;;;;;;23.07;19.23;;;;;;;14.13;100.00;101305.22;5297154;28;20051;-78
2023/05/11 00:54:14;;;;;;;19.73;17.60;;;;;;;14.12;100.00;101297.44;5297913;28;20035;-78
2023/05/11 00:56:47;;;;;;;22.53;18.43;;;;;;;14.21;100.00;101312.59;5297604;28;20111;-79
2023/05/11 00:59:18;;;;;;;21.83;19.47;;;;;;;14.08;100.00;101295.94;5297732;28;20031;-79
2023/05/11 01:01:50;;;;;;;22.10;18.90;;;;;;;14.21;100.00;101328.41;5296646;28;20027;-79
2023/05/11 01:04:21;;;;;;;21.50;19.30;;;;;;;14.20;100.00;101304.81;5297396;28;20111;-79
2023/05/11 01:07:30;;;;;;;22.83;19.50;;;;;;;14.44;100.00;101302.28;5297392;28;20027;-79
2023/05/11 01:10:20;;;;;;;22.90;20.20;;;;;;;14.44;100.00;101336.53;5295996;28;20165;-79
2023/05/11 01:13:03;;;;;;;21.57;19.13;;;;;;;14.47;100.00;101332.88;5296182;28;20056;-80
2023/05/11 01:15:45;;;;;;;26.03;19.77;;;;;;;14.39;100.00;101336.00;5296659;28;20031;-79
2023/05/11 01:18:30;;;;;;;25.13;20.40;;;;;;;14.49;100.00;101318.63;5297484;28;20072;-80
2023/05/11 01:21:02;;;;;;;25.60;20.90;;;;;;;14.41;100.00;101334.13;5296871;28;20051;-79
2023/05/11 01:23:42;;;;;;;25.03;20.17;;;;;;;14.47;100.00;101311.78;5297638;28;20027;-80
2023/05/11 01:26:29;;;;;;;22.27;19.63;;;;;;;14.60;100.00;101335.47;5297107;28;20028;-79
2023/05/11 01:29:18;;;;;;;23.23;20.33;;;;;;;14.66;100.00;101326.31;5297406;28;20060;-79
2023/05/11 01:31:53;;;;;;;25.17;20.60;;;;;;;14.34;100.00;101323.16;5296195;28;20065;-80
2023/05/11 01:34:30;;;;;;;27.83;21.20;;;;;;;14.22;100.00;101309.03;5296892;28;20028;-80
2023/05/11 01:37:11;;;;;;;26.40;21.93;;;;;;;14.36;100.00;101312.50;5297704;28;20437;-80
2023/05/11 01:39:55;;;;;;;27.03;22.00;;;;;;;14.47;100.00;101333.69;5296877;28;20031;-79
2023/05/11 01:42:37;;;;;;;27.90;23.42;;;;;;;14.31;100.00;101318.09;5300661;28;20032;-80
2023/05/11 01:45:10;;;;;;;26.30;22.87;;;;;;;14.22;100.00;101318.72;5298788;28;20028;-79
2023/05/11 01:47:44;;;;;;;27.90;23.00;;;;;;;14.32;100.00;101332.09;5300367;28;20767;-79
2023/05/11 01:50:18;;;;;;;28.63;23.10;;;;;;;14.22;100.00;101316.94;5301043;28;20039;-80
2023/05/11 01:52:50;;;;;;;25.17;22.33;;;;;;;14.17;100.00;101308.50;5301506;28;20127;-80
2023/05/11 01:55:23;;;;;;;27.37;22.30;;;;;;;14.17;100.00;101303.25;5301464;28;20028;-80
2023/05/11 01:57:55;;;;;;;29.97;23.83;;;;;;;14.05;100.00;101299.63;5301240;28;20085;-79
2023/05/11 02:00:27;;;;;;;27.27;22.87;;;;;;;14.10;100.00;101292.25;5299129;28;20036;-78
2023/05/11 02:03:01;;;;;;;26.27;22.20;;;;;;;14.21;100.00;101311.75;5300701;28;20360;-78
2023/05/11 02:05:33;;;;;;;;;;;;;;;14.90;100.00;101334.31;5301688;28;20050;-78
2023/05/11 02:08:07;;;;;;;26.93;23.83;;;;;;;14.14;100.00;101313.97;5299285;28;19958;-78
2023/05/11 02:10:40;;;;;;;29.70;24.17;;;;;;;14.18;100.00;101314.59;5301514;28;20364;-80
2023/05/11 02:13:13;;;;;;;30.47;23.53;;;;;;;14.19;100.00;101322.38;5300751;28;20067;-80
2023/05/11 02:15:46;;;;;;;28.60;25.00;;;;;;;14.06;100.00;101297.84;5298993;28;20028;-80
2023/05/11 02:18:19;;;;;;;31.20;25.53;;;;;;;14.13;100.00;101307.00;5300404;28;20752;-79
2023/05/11 02:20:52;;;;;;;29.77;26.17;;;;;;;13.95;100.00;101278.34;5299453;28;20039;-80
2023/05/11 02:23:25;;;;;;;30.17;23.93;;;;;;;14.09;100.00;101297.63;5300764;28;20043;-80
2023/05/11 02:25:57;;;;;;;28.77;25.47;;;;;;;14.06;100.00;101297.84;5300317;28;20836;-80
2023/05/11 02:28:28;;;;;;;29.40;25.70;;;;;;;14.08;100.00;101295.94;5300520;28;20031;-80
2023/05/11 02:31:05;;;;;;;28.23;25.13;;;;;;;14.26;100.00;101318.41;5299554;28;20069;-80
2023/05/11 02:33:43;;;;;;;34.17;26.80;;;;;;;14.14;100.00;101316.59;5300221;28;20063;-81
2023/05/11 02:36:19;;;;;;;29.50;25.40;;;;;;;14.12;100.00;101305.34;5300779;28;20034;-81
2023/05/11 02:38:57;;;;;;;29.67;26.00;;;;;;;14.10;100.00;101309.88;5300454;28;20047;-80
2023/05/11 02:41:30;;;;;;;33.93;27.73;;;;;;;14.20;100.00;101324.09;5298829;28;20476;-80
2023/05/11 02:44:03;;;;;;;31.30;27.07;;;;;;;14.02;100.00;101303.31;5291212;28;20475;-80
2023/05/11 02:46:37;;;;;;;35.57;27.30;;;;;;;14.15;100.00;101339.38;5292437;28;20060;-80
2023/05/11 02:49:10;;;;;;;33.40;27.90;;;;;;;14.07;100.00;101304.81;5297290;28;20037;-80
2023/05/11 02:51:43;;;;;;;31.37;27.37;;;;;;;14.03;100.00;101305.00;5276559;28;20054;-80
2023/05/11 02:54:16;;;;;;;34.90;28.15;;;;;;;14.00;100.00;101299.09;5279177;28;20032;-80
2023/05/11 02:56:48;;;;;;;35.27;30.10;;;;;;;13.95;100.00;101309.94;5288117;28;20384;-80
2023/05/11 02:59:21;;;;;;;34.20;28.70;;;;;;;13.91;100.00;101301.41;5299559;28;20043;-79
2023/05/11 03:01:53;;;;;;;33.33;28.70;;;;;;;13.85;100.00;101301.81;5298567;28;20024;-79
2023/05/11 03:04:24;;;;;;;33.17;29.17;;;;;;;14.02;100.00;101334.06;5299635;28;20030;-79
2023/05/11 03:06:55;;;;;;;32.60;27.50;;;;;;;13.98;100.00;101316.81;5298802;28;20016;-79
2023/05/11 03:09:27;;;;;;;31.80;28.13;;;;;;;14.03;100.00;101341.88;5286471;28;20494;-79
2023/05/11 03:11:59;;;;;;;34.63;30.40;;;;;;;13.87;100.00;101309.63;5279053;28;20147;-80
2023/05/11 03:14:33;;;;;;;35.63;30.17;;;;;;;14.05;100.00;101327.75;5278021;28;20456;-80
2023/05/11 03:17:05;;;;;;;35.10;31.20;;;;;;;13.93;100.00;101338.16;5277424;28;20475;-80
2023/05/11 03:19:37;;;;;;;31.70;28.27;;;;;;;13.71;100.00;101315.03;5278495;28;20538;-80
2023/05/11 03:22:10;;;;;;;35.03;30.80;;;;;;;13.84;100.00;101323.00;5278385;28;20044;-80
2023/05/11 03:24:41;;;;;;;34.47;30.37;;;;;;;13.79;100.00;101308.31;5277414;28;20032;-80
2023/05/11 03:27:13;;;;;;;35.17;30.17;;;;;;;13.82;100.00;101317.81;5278465;28;20464;-80
2023/05/11 03:29:45;;;;;;;33.43;28.50;;;;;;;13.73;100.00;101326.31;5277568;28;20134;-80
2023/05/11 03:32:17;;;;;;;36.03;30.77;;;;;;;13.76;100.00;101311.16;5278757;28;20024;-80
2023/05/11 03:34:48;;;;;;;38.47;31.00;;;;;;;13.76;100.00;101316.44;5276848;28;20028;-79
2023/05/11 03:37:21;;;;;;;34.90;30.43;;;;;;;13.89;100.00;101339.31;5278321;28;20027;-79
2023/05/11 03:39:57;;;;;;;34.57;29.80;;;;;;;14.05;100.00;101339.13;5276577;28;20111;-79
2023/05/11 03:42:31;;;;;;;31.97;28.60;;;;;;;13.85;100.00;101327.28;5277091;28;20021;-80
2023/05/11 03:45:06;;;;;;;35.25;29.83;;;;;;;13.61;100.00;101304.28;5282284;28;20027;-80
2023/05/11 03:47:39;;;;;;;35.20;27.97;;;;;;;13.47;100.00;101295.47;5299658;28;20133;-79
2023/05/11 03:50:12;;;;;;;33.43;28.90;;;;;;;13.58;100.00;101300.06;5299260;28;20028;-80
2023/05/11 03:52:43;;;;;;;35.17;30.17;;;;;;;13.51;100.00;101282.97;5298861;28;20085;-80
2023/05/11 03:55:15;;;;;;;36.30;29.53;;;;;;;13.48;100.00;101305.03;5281735;28;20064;-81
2023/05/11 03:57:46;;;;;;;32.90;29.30;;;;;;;13.48;100.00;101312.94;5295674;28;20383;-81
2023/05/11 04:00:17;;;;;;;34.10;30.27;;;;;;;13.55;100.00;101316.91;5287187;28;20062;-81
2023/05/11 04:02:49;;;;;;;33.20;29.63;;;;;;;13.58;100.00;101333.44;5298166;28;20036;-80
2023/05/11 04:05:20;;;;;;;38.00;30.10;;;;;;;13.28;100.00;101307.16;5281288;28;20628;-80
2023/05/11 04:07:52;;;;;;;36.90;30.23;;;;;;;13.45;100.00;101299.13;5298994;28;20043;-80
2023/05/11 04:10:23;;;;;;;38.67;32.70;;;;;;;13.61;100.00;101322.69;5294975;28;20034;-80
2023/05/11 04:12:54;;;;;;;45.57;34.73;;;;;;;13.52;100.00;101306.56;5277728;28;20629;-80
2023/05/11 04:15:26;;;;;;;40.40;33.83;;;;;;;13.50;100.00;101308.44;5275115;28;20068;-80
2023/05/11 04:17:57;;;;;;;41.20;35.33;;;;;;;13.73;100.00;101329.81;5276502;28;20016;-80
2023/05/11 04:20:28;;;;;;;43.27;34.80;;;;;;;13.50;100.00;101302.31;5278372;28;20645;-79
2023/05/11 04:23:00;;;;;;;43.50;34.90;;;;;;;13.55;100.00;101302.88;5288690;28;20488;-79
2023/05/11 04:25:31;;;;;;;49.67;36.23;;;;;;;13.57;100.00;101310.69;5297060;28;20387;-80
2023/05/11 04:28:02;;;;;;;49.70;39.00;;;;;;;13.58;100.00;101301.84;5289467;28;20123;-79
2023/05/11 04:30:34;;;;;;;43.37;35.67;;;;;;;13.51;100.00;101304.03;5279941;28;20035;-80
2023/05/11 04:33:05;;;;;;;52.03;38.53;;;;;;;13.69;100.00;101337.97;5295340;28;20036;-79
2023/05/11 04:35:39;;;;;;;46.27;37.60;;;;;;;13.74;100.00;101309.56;5284833;28;20040;-79
2023/05/11 04:38:11;;;;;;;51.58;38.25;;;;;;;13.56;100.00;101299.34;5275266;28;20070;-79
2023/05/11 04:40:42;;;;;;;48.03;37.37;;;;;;;13.72;100.00;101337.81;5282169;28;20028;-79
2023/05/11 04:43:14;;;;;;;47.67;39.70;;;;;;;13.65;100.00;101334.69;5295955;28;20056;-79
2023/05/11 04:45:49;;;;;;;47.87;39.33;;;;;;;13.70;100.00;101335.25;5280081;28;20024;-79
2023/05/11 04:48:20;;;;;;;48.13;38.70;;;;;;;13.63;100.00;101316.38;5288877;28;20024;-80
2023/05/11 04:50:55;;;;;;;49.17;39.70;;;;;;;13.97;100.00;101344.91;5286373;28;20101;-79
2023/05/11 04:53:26;;;;;;;49.87;39.93;;;;;;;13.73;100.00;101307.91;5297768;28;20051;-80
2023/05/11 04:55:58;;;;;;;53.07;41.40;;;;;;;13.85;100.00;101357.09;5287522;28;20025;-79
2023/05/11 04:58:29;;;;;;;56.30;41.17;;;;;;;13.87;100.00;101346.47;5279328;28;20017;-79
2023/05/11 05:01:00;;;;;;;58.70;41.67;;;;;;;13.96;100.00;101356.41;5293472;28;20024;-79
2023/05/11 05:03:32;;;;;;;55.00;41.27;;;;;;;14.00;100.00;101347.34;5282145;28;20077;-79
2023/05/11 05:06:03;;;;;;;52.60;41.40;;;;;;;13.97;100.00;101336.16;5296899;28;20024;-78
2023/05/11 05:08:34;;;;;;;54.67;40.03;;;;;;;14.09;100.00;101360.84;5293090;28;20118;-80
2023/05/11 05:11:06;;;;;;;48.83;38.60;;;;;;;13.94;100.00;101342.50;5275916;28;20542;-79
2023/05/11 05:13:37;;;;;;;49.03;37.97;;;;;;;14.13;100.00;101372.88;5276026;28;20048;-79
2023/05/11 05:16:08;;;;;;;48.43;39.47;;;;;;;13.97;100.00;101341.44;5291361;28;20040;-79
2023/05/11 05:18:40;;;;;;;49.63;38.70;;;;;;;14.01;100.00;101364.00;5284108;28;20028;-79
2023/05/11 05:21:11;;;;;;;46.13;38.83;;;;;;;14.11;100.00;101374.75;5283730;28;20068;-79
2023/05/11 05:23:43;;;;;;;50.73;37.33;;;;;;;14.02;100.00;101366.53;5283301;28;20035;-79
2023/05/11 05:26:14;;;;;;;49.07;35.77;;;;;;;14.02;100.00;101363.88;5296498;28;20077;-78
2023/05/11 05:28:45;;;;;;;46.23;37.30;;;;;;;14.19;100.00;101382.16;5295831;28;20038;-78
2023/05/11 05:31:17;;;;;;;46.20;35.33;;;;;;;14.04;100.00;101358.50;5295827;28;20466;-78
2023/05/11 05:33:48;;;;;;;49.13;36.37;;;;;;;13.99;100.00;101350.94;5296463;28;20016;-78
2023/05/11 05:36:20;;;;;;;51.10;37.73;;;;;;;14.23;100.00;101381.84;5296389;28;20098;-78
2023/05/11 05:38:51;;;;;;;48.43;36.20;;;;;;;14.09;100.00;101366.09;5295696;28;20069;-78
2023/05/11 05:41:22;;;;;;;48.60;36.27;;;;;;;14.18;100.00;101362.88;5295908;28;20043;-78
2023/05/11 05:43:54;;;;;;;47.43;34.90;;;;;;;14.07;100.00;101354.84;5296321;28;20090;-78
2023/05/11 05:46:25;;;;;;;47.07;35.83;;;;;;;14.17;100.00;101358.56;5294638;28;20028;-78
2023/05/11 05:48:56;;;;;;;46.63;34.60;;;;;;;14.08;100.00;101369.69;5294124;28;20039;-78
2023/05/11 05:51:28;;;;;;;46.73;34.73;;;;;;;14.19;100.00;101371.63;5295433;28;20498;-77
2023/05/11 05:53:59;;;;;;;53.37;38.23;;;;;;;14.24;100.00;101380.88;5293741;28;20039;-78
2023/05/11 05:56:33;;;;;;;52.53;36.57;;;;;;;14.20;100.00;101371.50;5291945;28;20028;-78
2023/05/11 05:59:07;;;;;;;50.47;37.70;;;;;;;14.30;100.00;101371.72;5294724;28;20023;-78
2023/05/11 06:01:57;;;;;;;55.40;39.55;;;;;;;14.51;100.00;101381.75;5292204;28;20081;-78
2023/05/11 06:04:28;;;;;;;56.83;41.43;;;;;;;14.32;100.00;101392.69;5287366;28;20599;-78
2023/05/11 06:06:59;;;;;;;59.23;41.93;;;;;;;14.42;100.00;101399.03;5285868;28;20053;-78
2023/05/11 06:09:31;;;;;;;58.57;41.03;;;;;;;14.42;100.00;101388.50;5279346;28;20480;-77
2023/05/11 06:12:02;;;;;;;53.80;40.00;;;;;;;14.51;100.00;101402.84;5281441;28;20123;-78
2023/05/11 06:14:40;;;;;;;54.43;40.60;;;;;;;14.57;100.00;101383.13;5294117;28;20031;-77
2023/05/11 06:17:11;;;;;;;55.27;38.73;;;;;;;14.54;100.00;101378.09;5290295;28;20016;-77
2023/05/11 06:19:43;;;;;;;63.00;45.03;;;;;;;14.61;100.00;101384.59;5295577;28;20077;-77
2023/05/11 06:22:14;;;;;;;57.37;43.67;;;;;;;14.51;100.00;101381.75;5289805;28;20094;-77
2023/05/11 06:24:45;;;;;;;58.13;43.57;;;;;;;14.56;100.00;101399.88;5287117;28;20028;-77
2023/05/11 06:27:17;;;;;;;63.13;43.80;;;;;;;14.66;100.00;101405.38;5288262;28;20436;-77
2023/05/11 06:29:48;;;;;;;61.17;44.20;;;;;;;14.62;100.00;101412.66;5300125;28;20039;-77
2023/05/11 06:32:19;;;;;;;59.97;43.27;;;;;;;14.55;100.00;101403.47;5295390;28;20016;-77
2023/05/11 06:34:51;;;;;;;65.93;47.13;;;;;;;14.48;100.00;101381.97;5289448;28;20052;-77
2023/05/11 06:37:23;;;;;;;55.50;41.83;;;;;;;14.55;100.00;101392.94;5279665;28;20460;-77
2023/05/11 06:39:54;;;;;;;60.93;43.03;;;;;;;14.54;100.00;101386.00;5281463;28;20024;-79
2023/05/11 06:42:26;;;;;;;55.90;40.87;;;;;;;14.44;100.00;101391.88;5300012;28;20024;-77
2023/05/11 06:44:57;;;;;;;59.33;43.20;;;;;;;14.52;100.00;101389.56;5299981;28;20110;-77
2023/05/11 06:47:29;;;;;;;56.37;41.40;;;;;;;14.49;100.00;101397.69;5299259;28;20475;-78
2023/05/11 06:50:00;;;;;;;52.37;39.73;;;;;;;14.60;100.00;101409.28;5299682;28;20066;-78
2023/05/11 06:52:34;;;;;;;59.57;43.80;;;;;;;14.57;100.00;101398.94;5300512;28;20024;-78
2023/05/11 06:55:06;;;;;;;52.88;41.05;;;;;;;14.39;100.00;101394.84;5300210;28;20493;-78
2023/05/11 06:57:51;;;;;;;55.13;41.40;;;;;;;14.68;100.00;101393.78;5303400;28;20150;-79
2023/05/11 07:00:23;;;;;;;52.83;39.83;;;;;;;14.37;100.00;101391.44;5285671;28;20032;-80
2023/05/11 07:06:39;;;;;;;58.60;40.87;;;;;;;14.44;100.00;101391.03;5289467;28;20039;-80
2023/05/11 07:09:10;;;;;;;57.03;42.13;;;;;;;14.53;100.00;101414.13;5298537;28;20109;-80
2023/05/11 07:12:26;;;;;;;61.70;42.77;;;;;;;15.02;100.00;101438.09;5299940;28;20519;-79
2023/05/11 07:14:57;;;;;;;69.70;45.30;;;;;;;14.65;100.00;101428.25;5257035;28;20393;-80
2023/05/11 07:17:28;;;;;;;59.37;42.73;;;;;;;14.50;100.00;101401.16;5256644;28;20036;-80
2023/05/11 07:20:00;;;;;;;64.77;45.50;;;;;;;14.51;100.00;101406.34;5257294;28;20075;-80
2023/05/11 07:22:31;;;;;;;75.43;49.70;;;;;;;14.72;100.00;101441.88;5248259;28;20179;-77
2023/05/11 07:25:03;;;;;;;74.17;50.33;;;;;;;14.48;100.00;101408.31;5257080;28;20404;-78
2023/05/11 07:27:55;;;;;;;79.17;50.50;;;;;;;14.74;100.00;101408.34;5252192;28;20025;-79
2023/05/11 07:31:10;;;;;;;83.97;53.97;;;;;;;15.02;100.00;101440.75;5236129;28;20465;-80
2023/05/11 07:33:44;;;;;;;95.43;59.50;;;;;;;14.65;100.00;101409.81;5234111;28;20120;-80
2023/05/11 07:36:22;;;;;;;;;;;;;;;15.35;100.00;101449.03;5241946;28;20021;-80
2023/05/11 07:38:53;;;;;;;87.33;57.40;;;;;;;14.85;100.00;101436.66;5255908;28;19908;-79
2023/05/11 07:41:27;;;;;;;89.07;57.37;;;;;;;14.73;100.00;101438.31;5254643;28;20021;-78
2023/05/11 07:44:00;;;;;;;87.00;57.67;;;;;;;14.84;100.00;101446.34;5254914;28;20017;-79
2023/05/11 07:46:31;;;;;;;85.57;58.07;;;;;;;14.66;100.00;101443.13;5255529;28;20163;-78
2023/05/11 07:49:03;;;;;;;83.53;54.30;;;;;;;14.71;100.00;101445.47;5256286;28;20547;-78
2023/05/11 07:51:34;;;;;;;89.07;57.50;;;;;;;14.62;100.00;101446.94;5256411;28;20060;-79
2023/05/11 07:54:05;;;;;;;84.83;56.13;;;;;;;14.61;100.00;101439.94;5255605;28;20440;-79
2023/05/11 07:56:37;;;;;;;82.07;55.13;;;;;;;14.56;100.00;101453.44;5256787;28;20024;-78
2023/05/11 07:59:08;;;;;;;94.30;57.90;;;;;;;14.57;100.00;101438.50;5256753;28;20036;-79
2023/05/11 08:01:40;;;;;;;96.53;58.07;;;;;;;14.53;100.00;101458.94;5255524;28;20061;-79
2023/05/11 08:04:11;;;;;;;99.60;61.10;;;;;;;14.56;100.00;101453.44;5256873;28;20029;-78
2023/05/11 08:06:43;;;;;;;94.80;58.50;;;;;;;14.54;100.00;101451.88;5254763;28;20370;-78
2023/05/11 08:09:15;;;;;;;98.67;62.70;;;;;;;14.65;100.00;101462.53;5255035;28;20025;-78
2023/05/11 08:11:46;;;;;;;95.93;62.20;;;;;;;14.67;100.00;101455.38;5255491;28;20019;-78
2023/05/11 08:14:17;;;;;;;96.93;61.10;;;;;;;14.50;100.00;101445.97;5279219;28;20102;-78
2023/05/11 08:16:49;;;;;;;88.70;59.53;;;;;;;14.58;100.00;101461.25;5293329;28;20031;-79
2023/05/11 08:19:20;;;;;;;91.37;61.50;;;;;;;14.49;100.00;101439.00;5300335;28;20032;-78
2023/05/11 08:21:52;;;;;;;94.20;59.83;;;;;;;14.62;100.00;101473.28;5300514;28;20039;-77
2023/05/11 08:24:23;;;;;;;96.17;63.47;;;;;;;14.59;100.00;101465.59;5281849;28;20036;-78
2023/05/11 08:26:55;;;;;;;97.57;63.20;;;;;;;14.64;100.00;101460.84;5285200;28;20433;-77
2023/05/11 08:29:26;;;;;;;92.10;62.33;;;;;;;14.62;100.00;101458.31;5284209;28;20040;-78
2023/05/11 08:31:58;;;;;;;101.37;63.87;;;;;;;14.60;100.00;101459.38;5283646;28;20027;-78
2023/05/11 08:34:29;;;;;;;94.70;63.27;;;;;;;14.55;100.00;101449.13;5285028;28;21392;-79
2023/05/11 08:37:00;;;;;;;90.83;60.03;;;;;;;14.58;100.00;101463.88;5285136;28;20024;-79
2023/05/11 08:39:33;;;;;;;91.23;62.17;;;;;;;14.67;100.00;101450.09;5286799;28;20503;-80
2023/05/11 08:42:05;;;;;;;94.87;60.33;;;;;;;14.76;100.00;101460.03;5285231;28;20077;-79
2023/05/11 08:44:40;;;;;;;90.83;62.33;;;;;;;14.75;100.00;101460.97;5284390;28;20069;-78
2023/05/11 08:47:12;;;;;;;96.83;59.60;;;;;;;14.77;100.00;101455.56;5284882;28;20024;-79
2023/05/11 08:49:43;;;;;;;97.73;64.60;;;;;;;14.91;100.00;101452.03;5286609;28;20024;-79
2023/05/11 08:52:17;;;;;;;93.17;61.70;;;;;;;14.98;100.00;101453.31;5285569;28;20039;-79
2023/05/11 08:54:48;;;;;;;100.17;62.07;;;;;;;14.99;100.00;101457.63;5286557;28;20027;-78
2023/05/11 08:57:19;;;;;;;90.17;60.23;;;;;;;14.97;100.00;101463.97;5286948;28;20817;-78
2023/05/11 08:59:52;;;;;;;97.37;63.63;;;;;;;15.03;100.00;101449.50;5285596;28;20122;-78
2023/05/11 09:02:24;;;;;;;90.43;60.43;;;;;;;15.08;100.00;101450.03;5285883;28;20038;-79
2023/05/11 09:04:57;;;;;;;93.13;62.63;;;;;;;15.10;100.00;101448.13;5282679;28;20104;-79
2023/05/11 09:07:30;;;;;;;86.77;58.97;;;;;;;15.26;100.00;101462.88;5280977;28;20039;-78
2023/05/11 09:10:02;;;;;;;93.40;61.17;;;;;;;15.42;100.00;101460.84;5281242;28;20077;-79
2023/05/11 09:12:34;;;;;;;95.87;63.90;;;;;;;15.50;100.00;101462.94;5283237;28;20040;-79
2023/05/11 09:15:07;;;;;;;94.00;62.67;;;;;;;15.70;100.00;101474.72;5283206;28;20820;-79
2023/05/11 09:17:38;;;;;;;92.73;65.30;;;;;;;15.70;100.00;101469.44;5283583;28;20028;-79
2023/05/11 09:20:10;;;;;;;95.07;64.53;;;;;;;15.73;100.00;101469.22;5284204;28;20105;-79
2023/05/11 09:22:44;;;;;;;97.50;63.13;;;;;;;15.84;100.00;101470.25;5284367;28;20052;-79
2023/05/11 09:25:18;;;;;;;94.70;61.22;;;;;;;15.95;100.00;101470.28;5283396;28;20028;-78
2023/05/11 09:27:50;;;;;;;87.53;62.40;;;;;;;16.11;100.00;101479.75;5281782;28;20111;-78
2023/05/11 09:30:22;;;;;;;89.97;60.23;;;;;;;16.01;100.00;101476.97;5285361;28;20148;-79
2023/05/11 09:32:54;;;;;;;87.33;59.53;;;;;;;16.24;100.00;101477.06;5284033;28;20470;-78
2023/05/11 09:35:31;;;;;;;79.60;56.00;;;;;;;16.04;100.00;101489.94;5289564;28;20032;-78
2023/05/11 09:38:10;;;;;;;83.20;57.50;;;;;;;16.25;100.00;101481.38;5294118;28;20035;-77
2023/05/11 09:40:52;;;;;;;84.90;58.13;;;;;;;16.29;100.00;101482.00;5285573;28;20032;-78
2023/05/11 09:43:25;;;;;;;85.60;58.83;;;;;;;16.23;100.00;101475.41;5279238;28;20024;-78
2023/05/11 09:46:05;;;;;;;86.17;59.50;;;;;;;16.33;100.00;101471.09;5283402;28;20520;-77
2023/05/11 09:48:37;;;;;;;90.40;59.67;;;;;;;16.42;100.00;101474.84;5282248;28;20039;-78
2023/05/11 09:51:08;;;;;;;93.13;61.07;;;;;;;16.48;100.00;101483.28;5284682;28;20060;-78
2023/05/11 09:53:44;;;;;;;90.17;59.33;;;;;;;16.52;100.00;101484.72;5284438;28;20055;-77
2023/05/11 09:56:15;;;;;;;82.53;59.00;;;;;;;16.13;100.00;101490.25;5282843;28;20024;-76
2023/05/11 09:58:53;;;;;;;82.70;59.10;;;;;;;16.21;100.00;101493.97;5283136;28;20418;-77
2023/05/11 10:01:32;;;;;;;87.57;60.17;;;;;;;16.42;100.00;101495.97;5284926;28;20039;-76
2023/05/11 10:04:04;;;;;;;89.97;60.00;;;;;;;16.12;100.00;101478.81;5286328;28;20032;-76
2023/05/11 10:06:44;;;;;;;88.63;59.13;;;;;;;16.43;100.00;101486.25;5287665;28;20066;-77
2023/05/11 10:09:21;;;;;;;91.37;58.77;;;;;;;16.26;100.00;101475.16;5285753;28;20058;-76
2023/05/11 10:11:54;;;;;;;85.03;57.60;;;;;;;16.31;100.00;101486.22;5287577;28;20066;-77
2023/05/11 10:14:26;;;;;;;83.63;57.07;;;;;;;16.39;100.00;101490.94;5289061;28;20487;-76
2023/05/11 10:17:01;;;;;;;79.43;57.00;;;;;;;16.34;100.00;101485.16;5285902;28;20120;-76
2023/05/11 10:19:32;;;;;;;83.70;57.45;;;;;;;16.36;100.00;101488.53;5287456;28;21373;-78
2023/05/11 10:22:04;;;;;;;79.27;57.70;;;;;;;16.45;100.00;101485.22;5288858;28;20154;-78
2023/05/11 10:24:36;;;;;;;79.33;58.97;;;;;;;16.51;100.00;101483.88;5287607;28;20504;-76
2023/05/11 10:27:10;;;;;;;71.50;51.10;;;;;;;16.59;100.00;101493.91;5286285;28;20150;-77
2023/05/11 10:29:41;;;;;;;77.40;52.20;;;;;;;16.51;100.00;101499.75;5285356;28;20135;-77
2023/05/11 10:32:15;;;;;;;74.57;53.17;;;;;;;16.73;100.00;101492.84;5287975;28;20021;-77
2023/05/11 10:34:47;;;;;;;;;;;;;;;17.43;100.00;101484.03;5288762;28;20077;-78
2023/05/11 10:37:19;;;;;;;73.40;50.47;;;;;;;17.18;100.00;101464.78;5287129;28;20363;-78
2023/05/11 10:39:51;;;;;;;84.13;54.37;;;;;;;17.19;100.00;101473.56;5288194;28;20457;-78
2023/05/11 10:42:45;;;;;;;79.30;52.70;;;;;;;17.40;100.00;101479.81;5288419;28;20130;-78
2023/05/11 10:45:30;;;;;;;76.80;53.27;;;;;;;17.54;100.00;101480.53;5287784;28;20024;-78
2023/05/11 10:48:14;;;;;;;71.70;51.50;;;;;;;17.44;100.00;101475.13;5287010;28;20119;-78
2023/05/11 10:51:11;;;;;;;77.47;51.50;;;;;;;17.85;100.00;101470.13;5287349;28;20036;-78
2023/05/11 10:53:45;;;;;;;74.27;51.93;;;;;;;17.54;100.00;101477.91;5285220;28;20043;-78
2023/05/11 10:56:33;;;;;;;;;;;;;;;18.22;100.00;101476.88;5289136;28;20039;-78
2023/05/11 10:59:34;;;;;;;79.87;53.77;;;;;;;17.99;100.00;101465.50;5285481;28;19920;-75
2023/05/11 11:02:07;;;;;;;78.87;54.17;;;;;;;17.57;100.00;101464.41;5285306;28;20144;-76
2023/05/11 11:04:42;;;;;;;80.40;54.63;;;;;;;17.70;100.00;101468.72;5285543;28;20023;-76
2023/05/11 11:07:17;;;;;;;76.17;52.20;;;;;;;17.70;100.00;101458.13;5289157;28;20406;-76
2023/05/11 11:09:59;;;;;;;88.60;53.50;;;;;;;17.89;100.00;101463.59;5285643;28;20051;-76
2023/05/11 11:12:33;;;;;;;69.37;47.93;;;;;;;18.05;100.00;101445.59;5284776;28;20024;-76
2023/05/11 11:15:06;;;;;;;72.53;48.00;;;;;;;18.35;100.00;101460.78;5287447;28;20020;-77
2023/05/11 11:17:37;;;;;;;72.13;49.70;;;;;;;18.16;100.00;101452.69;5285681;28;20470;-77
2023/05/11 11:20:44;;;;;;;67.50;46.83;;;;;;;18.86;100.00;101466.28;5287032;28;20127;-77
2023/05/11 11:23:38;;;;;;;69.70;48.80;;;;;;;18.95;100.00;101459.34;5285978;28;20081;-76
2023/05/11 11:26:14;;;;;;;70.10;47.37;;;;;;;18.62;100.00;101459.41;5286012;28;20113;-76
2023/05/11 11:28:59;;;;;;;71.63;47.07;;;;;;;18.65;100.00;101462.78;5285314;28;20036;-77
2023/05/11 11:31:32;;;;;;;68.63;48.23;;;;;;;18.44;100.00;101447.72;5282848;28;20408;-78
2023/05/11 11:34:26;;;;;;;69.35;48.47;;;;;;;18.79;100.00;101464.28;5284555;28;20036;-77
2023/05/11 11:36:57;;;;;;;70.13;47.07;;;;;;;18.45;100.00;101454.72;5283793;28;20123;-78